sensor_id;sensor_type;location;lat;lon;timestamp;temperature;humidity
27534;DHT22;14973;51.460;7.008;2022-07-06T00:00:52;13.70;99.90
27534;DHT22;14973;51.460;7.008;2022-07-06T00:03:18;13.60;99.90
27534;DHT22;14973;51.460;7.008;2022-07-06T00:05:43;13.60;99.90
27534;DHT22;14973;51.460;7.008;2022-07-06T00:08:09;13.60;99.90
27534;DHT22;14973;51.460;7.008;2022-07-06T00:10:34;13.60;99.90
27534;DHT22;14973;51.460;7.008;2022-07-06T00:13:00;13.70;99.90
27534;DHT22;14973;51.460;7.008;2022-07-06T00:15:25;13.70;99.90
27534;DHT22;14973;51.460;7.008;2022-07-06T00:17:51;13.80;99.90
27534;DHT22;14973;51.460;7.008;2022-07-06T00:20:16;13.80;99.90
27534;DHT22;14973;51.460;7.008;2022-07-06T00:22:42;13.80;99.90
27534;DHT22;14973;51.460;7.008;2022-07-06T00:25:07;13.80;99.90
27534;DHT22;14973;51.460;7.008;2022-07-06T00:27:33;13.90;99.90
27534;DHT22;14973;51.460;7.008;2022-07-06T00:29:59;13.80;99.90
27534;DHT22;14973;51.460;7.008;2022-07-06T00:32:24;13.80;99.90
27534;DHT22;14973;51.460;7.008;2022-07-06T00:34:50;13.80;99.90
27534;DHT22;14973;51.460;7.008;2022-07-06T00:37:16;13.70;99.90
27534;DHT22;14973;51.460;7.008;2022-07-06T00:39:41;13.70;99.90
27534;DHT22;14973;51.460;7.008;2022-07-06T00:42:07;13.60;99.90
27534;DHT22;14973;51.460;7.008;2022-07-06T00:44:32;13.70;99.90
27534;DHT22;14973;51.460;7.008;2022-07-06T00:46:58;13.60;99.90
27534;DHT22;14973;51.460;7.008;2022-07-06T00:49:24;13.60;99.90
27534;DHT22;14973;51.460;7.008;2022-07-06T00:52:08;13.60;99.90
27534;DHT22;14973;51.460;7.008;2022-07-06T00:54:34;13.60;99.90
27534;DHT22;14973;51.460;7.008;2022-07-06T00:57:00;13.70;99.90
27534;DHT22;14973;51.460;7.008;2022-07-06T00:59:26;13.70;99.90
27534;DHT22;14973;51.460;7.008;2022-07-06T01:01:52;13.60;99.90
27534;DHT22;14973;51.460;7.008;2022-07-06T01:04:17;13.60;99.90
27534;DHT22;14973;51.460;7.008;2022-07-06T01:06:44;13.70;99.90
27534;DHT22;14973;51.460;7.008;2022-07-06T01:09:10;13.70;99.90
27534;DHT22;14973;51.460;7.008;2022-07-06T01:11:36;13.70;99.90
27534;DHT22;14973;51.460;7.008;2022-07-06T01:14:01;13.70;99.90
27534;DHT22;14973;51.460;7.008;2022-07-06T01:16:27;13.70;99.90
27534;DHT22;14973;51.460;7.008;2022-07-06T01:18:52;13.70;99.90
27534;DHT22;14973;51.460;7.008;2022-07-06T01:21:18;13.60;99.90
27534;DHT22;14973;51.460;7.008;2022-07-06T01:23:44;13.70;99.90
27534;DHT22;14973;51.460;7.008;2022-07-06T01:26:11;13.70;99.90
27534;DHT22;14973;51.460;7.008;2022-07-06T01:28:37;13.70;99.90
27534;DHT22;14973;51.460;7.008;2022-07-06T01:31:02;13.60;99.90
27534;DHT22;14973;51.460;7.008;2022-07-06T01:33:28;13.50;99.90
27534;DHT22;14973;51.460;7.008;2022-07-06T01:35:53;13.50;99.90
27534;DHT22;14973;51.460;7.008;2022-07-06T01:38:19;13.40;99.90
27534;DHT22;14973;51.460;7.008;2022-07-06T01:40:44;13.30;99.90
27534;DHT22;14973;51.460;7.008;2022-07-06T01:43:10;13.10;99.90
27534;DHT22;14973;51.460;7.008;2022-07-06T01:45:35;13.10;99.90
27534;DHT22;14973;51.460;7.008;2022-07-06T01:48:04;13.00;99.90
27534;DHT22;14973;51.460;7.008;2022-07-06T01:50:30;12.90;99.90
27534;DHT22;14973;51.460;7.008;2022-07-06T01:52:55;12.90;99.90
27534;DHT22;14973;51.460;7.008;2022-07-06T01:55:21;12.90;99.90
27534;DHT22;14973;51.460;7.008;2022-07-06T01:57:46;12.80;99.90
27534;DHT22;14973;51.460;7.008;2022-07-06T02:00:12;12.80;99.90
27534;DHT22;14973;51.460;7.008;2022-07-06T02:02:38;12.70;99.90
27534;DHT22;14973;51.460;7.008;2022-07-06T02:05:03;12.70;99.90
27534;DHT22;14973;51.460;7.008;2022-07-06T02:07:29;12.50;99.90
27534;DHT22;14973;51.460;7.008;2022-07-06T02:09:54;12.30;99.90
27534;DHT22;14973;51.460;7.008;2022-07-06T02:12:20;12.40;99.90
27534;DHT22;14973;51.460;7.008;2022-07-06T02:14:46;12.40;99.90
27534;DHT22;14973;51.460;7.008;2022-07-06T02:17:11;12.40;99.90
27534;DHT22;14973;51.460;7.008;2022-07-06T02:19:37;12.40;99.90
27534;DHT22;14973;51.460;7.008;2022-07-06T02:22:02;12.40;99.90
27534;DHT22;14973;51.460;7.008;2022-07-06T02:24:28;12.30;99.90
27534;DHT22;14973;51.460;7.008;2022-07-06T02:26:54;12.30;99.90
27534;DHT22;14973;51.460;7.008;2022-07-06T02:29:19;12.20;99.90
27534;DHT22;14973;51.460;7.008;2022-07-06T02:31:45;12.20;99.90
27534;DHT22;14973;51.460;7.008;2022-07-06T02:34:11;12.20;99.90
27534;DHT22;14973;51.460;7.008;2022-07-06T02:36:36;12.10;99.90
27534;DHT22;14973;51.460;7.008;2022-07-06T02:39:02;12.20;99.90
27534;DHT22;14973;51.460;7.008;2022-07-06T02:41:27;12.10;99.90
27534;DHT22;14973;51.460;7.008;2022-07-06T02:43:53;12.10;99.90
27534;DHT22;14973;51.460;7.008;2022-07-06T02:46:18;12.10;99.90
27534;DHT22;14973;51.460;7.008;2022-07-06T02:48:44;12.10;99.90
27534;DHT22;14973;51.460;7.008;2022-07-06T02:51:09;12.00;99.90
27534;DHT22;14973;51.460;7.008;2022-07-06T02:53:35;11.90;99.90
27534;DHT22;14973;51.460;7.008;2022-07-06T02:56:00;12.00;99.90
27534;DHT22;14973;51.460;7.008;2022-07-06T02:58:26;11.90;99.90
27534;DHT22;14973;51.460;7.008;2022-07-06T03:00:51;11.90;99.90
27534;DHT22;14973;51.460;7.008;2022-07-06T03:03:17;11.90;99.90
27534;DHT22;14973;51.460;7.008;2022-07-06T03:05:42;11.80;99.90
27534;DHT22;14973;51.460;7.008;2022-07-06T03:08:08;11.90;99.90
27534;DHT22;14973;51.460;7.008;2022-07-06T03:10:33;11.80;99.90
27534;DHT22;14973;51.460;7.008;2022-07-06T03:12:59;11.80;99.90
27534;DHT22;14973;51.460;7.008;2022-07-06T03:15:24;11.90;99.90
27534;DHT22;14973;51.460;7.008;2022-07-06T03:17:50;11.90;99.90
27534;DHT22;14973;51.460;7.008;2022-07-06T03:20:15;11.90;99.90
27534;DHT22;14973;51.460;7.008;2022-07-06T03:22:41;11.90;99.90
27534;DHT22;14973;51.460;7.008;2022-07-06T03:25:06;12.00;99.90
27534;DHT22;14973;51.460;7.008;2022-07-06T03:27:32;12.20;99.90
27534;DHT22;14973;51.460;7.008;2022-07-06T03:29:59;12.30;99.90
27534;DHT22;14973;51.460;7.008;2022-07-06T03:32:24;12.40;99.90
27534;DHT22;14973;51.460;7.008;2022-07-06T03:34:50;12.40;99.90
27534;DHT22;14973;51.460;7.008;2022-07-06T03:37:15;12.50;99.90
27534;DHT22;14973;51.460;7.008;2022-07-06T03:39:41;12.70;99.90
27534;DHT22;14973;51.460;7.008;2022-07-06T03:42:06;12.70;99.90
27534;DHT22;14973;51.460;7.008;2022-07-06T03:44:32;12.70;99.90
27534;DHT22;14973;51.460;7.008;2022-07-06T03:46:57;12.60;99.90
27534;DHT22;14973;51.460;7.008;2022-07-06T03:49:23;12.70;99.90
27534;DHT22;14973;51.460;7.008;2022-07-06T03:51:52;12.80;99.90
27534;DHT22;14973;51.460;7.008;2022-07-06T03:54:17;12.80;99.90
27534;DHT22;14973;51.460;7.008;2022-07-06T03:56:43;12.90;99.90
27534;DHT22;14973;51.460;7.008;2022-07-06T03:59:08;13.00;99.90
27534;DHT22;14973;51.460;7.008;2022-07-06T04:01:34;13.00;99.90
27534;DHT22;14973;51.460;7.008;2022-07-06T04:03:59;13.20;99.90
27534;DHT22;14973;51.460;7.008;2022-07-06T04:06:25;13.30;99.90
27534;DHT22;14973;51.460;7.008;2022-07-06T04:08:51;13.40;99.90
27534;DHT22;14973;51.460;7.008;2022-07-06T04:11:17;13.50;99.90
27534;DHT22;14973;51.460;7.008;2022-07-06T04:13:42;13.60;99.90
27534;DHT22;14973;51.460;7.008;2022-07-06T04:16:08;13.70;99.90
27534;DHT22;14973;51.460;7.008;2022-07-06T04:18:34;13.70;99.90
27534;DHT22;14973;51.460;7.008;2022-07-06T04:20:59;13.80;99.90
27534;DHT22;14973;51.460;7.008;2022-07-06T04:23:25;14.00;99.90
27534;DHT22;14973;51.460;7.008;2022-07-06T04:25:50;14.00;99.90
27534;DHT22;14973;51.460;7.008;2022-07-06T04:28:16;14.00;99.90
27534;DHT22;14973;51.460;7.008;2022-07-06T04:30:41;14.10;99.90
27534;DHT22;14973;51.460;7.008;2022-07-06T04:33:07;14.20;99.90
27534;DHT22;14973;51.460;7.008;2022-07-06T04:35:32;14.20;99.90
27534;DHT22;14973;51.460;7.008;2022-07-06T04:37:58;14.20;99.90
27534;DHT22;14973;51.460;7.008;2022-07-06T04:40:23;14.30;99.90
27534;DHT22;14973;51.460;7.008;2022-07-06T04:42:49;14.50;99.90
27534;DHT22;14973;51.460;7.008;2022-07-06T04:45:14;14.70;99.90
27534;DHT22;14973;51.460;7.008;2022-07-06T04:47:40;15.10;99.90
27534;DHT22;14973;51.460;7.008;2022-07-06T04:50:06;15.80;99.90
27534;DHT22;14973;51.460;7.008;2022-07-06T04:52:31;17.40;99.90
27534;DHT22;14973;51.460;7.008;2022-07-06T04:54:57;19.80;99.90
27534;DHT22;14973;51.460;7.008;2022-07-06T04:57:22;22.50;99.90
27534;DHT22;14973;51.460;7.008;2022-07-06T04:59:51;25.10;99.00
27534;DHT22;14973;51.460;7.008;2022-07-06T05:02:16;26.80;94.30
27534;DHT22;14973;51.460;7.008;2022-07-06T05:04:42;28.00;91.20
27534;DHT22;14973;51.460;7.008;2022-07-06T05:07:07;29.10;89.50
27534;DHT22;14973;51.460;7.008;2022-07-06T05:09:33;30.40;85.00
27534;DHT22;14973;51.460;7.008;2022-07-06T05:11:58;31.30;81.50
27534;DHT22;14973;51.460;7.008;2022-07-06T05:14:24;31.90;78.60
27534;DHT22;14973;51.460;7.008;2022-07-06T05:16:49;33.00;76.00
27534;DHT22;14973;51.460;7.008;2022-07-06T05:19:15;33.00;74.60
27534;DHT22;14973;51.460;7.008;2022-07-06T05:21:40;33.30;73.90
27534;DHT22;14973;51.460;7.008;2022-07-06T05:24:06;33.60;72.60
27534;DHT22;14973;51.460;7.008;2022-07-06T05:26:31;33.00;72.00
27534;DHT22;14973;51.460;7.008;2022-07-06T05:28:57;32.30;73.80
27534;DHT22;14973;51.460;7.008;2022-07-06T05:31:23;32.50;73.10
27534;DHT22;14973;51.460;7.008;2022-07-06T05:33:48;33.10;71.70
27534;DHT22;14973;51.460;7.008;2022-07-06T05:36:14;33.30;71.40
27534;DHT22;14973;51.460;7.008;2022-07-06T05:38:39;33.70;70.80
27534;DHT22;14973;51.460;7.008;2022-07-06T05:41:05;34.50;69.20
27534;DHT22;14973;51.460;7.008;2022-07-06T05:43:30;34.60;68.80
27534;DHT22;14973;51.460;7.008;2022-07-06T05:45:56;33.90;69.10
27534;DHT22;14973;51.460;7.008;2022-07-06T05:48:21;33.10;70.50
27534;DHT22;14973;51.460;7.008;2022-07-06T05:51:05;33.40;70.60
27534;DHT22;14973;51.460;7.008;2022-07-06T05:53:31;34.80;68.10
27534;DHT22;14973;51.460;7.008;2022-07-06T05:55:56;34.70;67.10
27534;DHT22;14973;51.460;7.008;2022-07-06T05:58:22;33.70;70.00
27534;DHT22;14973;51.460;7.008;2022-07-06T06:00:49;33.50;69.40
27534;DHT22;14973;51.460;7.008;2022-07-06T06:03:15;32.80;69.80
27534;DHT22;14973;51.460;7.008;2022-07-06T06:05:40;31.90;71.50
27534;DHT22;14973;51.460;7.008;2022-07-06T06:08:06;30.40;74.20
27534;DHT22;14973;51.460;7.008;2022-07-06T06:10:31;28.30;78.20
27534;DHT22;14973;51.460;7.008;2022-07-06T06:12:57;27.10;81.50
27534;DHT22;14973;51.460;7.008;2022-07-06T06:15:22;25.50;84.90
27534;DHT22;14973;51.460;7.008;2022-07-06T06:17:48;24.60;87.50
27534;DHT22;14973;51.460;7.008;2022-07-06T06:20:13;24.00;89.70
27534;DHT22;14973;51.460;7.008;2022-07-06T06:22:56;23.30;90.90
27534;DHT22;14973;51.460;7.008;2022-07-06T06:27:56;22.40;92.60
27534;DHT22;14973;51.460;7.008;2022-07-06T06:30:21;22.10;93.30
27534;DHT22;14973;51.460;7.008;2022-07-06T06:32:47;22.00;93.80
27534;DHT22;14973;51.460;7.008;2022-07-06T06:35:13;22.00;93.90
27534;DHT22;14973;51.460;7.008;2022-07-06T06:37:38;22.10;93.90
27534;DHT22;14973;51.460;7.008;2022-07-06T06:40:04;21.90;94.10
27534;DHT22;14973;51.460;7.008;2022-07-06T06:42:30;21.80;94.70
27534;DHT22;14973;51.460;7.008;2022-07-06T06:44:56;21.60;95.30
27534;DHT22;14973;51.460;7.008;2022-07-06T06:47:21;21.80;94.90
27534;DHT22;14973;51.460;7.008;2022-07-06T06:49:47;21.30;95.70
27534;DHT22;14973;51.460;7.008;2022-07-06T06:52:13;21.50;95.90
27534;DHT22;14973;51.460;7.008;2022-07-06T06:54:38;21.50;95.90
27534;DHT22;14973;51.460;7.008;2022-07-06T06:57:04;21.60;95.30
27534;DHT22;14973;51.460;7.008;2022-07-06T06:59:29;21.40;95.40
27534;DHT22;14973;51.460;7.008;2022-07-06T07:01:55;21.20;95.80
27534;DHT22;14973;51.460;7.008;2022-07-06T07:04:20;21.40;95.30
27534;DHT22;14973;51.460;7.008;2022-07-06T07:06:46;21.70;95.00
27534;DHT22;14973;51.460;7.008;2022-07-06T07:09:11;21.60;94.60
27534;DHT22;14973;51.460;7.008;2022-07-06T07:11:37;21.50;94.70
27534;DHT22;14973;51.460;7.008;2022-07-06T07:14:02;21.40;95.30
27534;DHT22;14973;51.460;7.008;2022-07-06T07:16:28;21.60;95.10
27534;DHT22;14973;51.460;7.008;2022-07-06T07:18:53;22.00;94.40
27534;DHT22;14973;51.460;7.008;2022-07-06T07:21:19;22.30;93.70
27534;DHT22;14973;51.460;7.008;2022-07-06T07:23:44;22.40;93.60
27534;DHT22;14973;51.460;7.008;2022-07-06T07:26:10;22.80;92.50
27534;DHT22;14973;51.460;7.008;2022-07-06T07:28:35;23.40;91.70
27534;DHT22;14973;51.460;7.008;2022-07-06T07:31:01;24.40;90.10
27534;DHT22;14973;51.460;7.008;2022-07-06T07:33:26;25.00;87.70
27534;DHT22;14973;51.460;7.008;2022-07-06T07:35:52;24.90;86.90
27534;DHT22;14973;51.460;7.008;2022-07-06T07:38:17;24.80;87.80
27534;DHT22;14973;51.460;7.008;2022-07-06T07:40:43;24.20;89.50
27534;DHT22;14973;51.460;7.008;2022-07-06T07:43:09;23.30;91.00
27534;DHT22;14973;51.460;7.008;2022-07-06T07:45:34;23.70;91.00
27534;DHT22;14973;51.460;7.008;2022-07-06T07:48:00;25.10;89.40
27534;DHT22;14973;51.460;7.008;2022-07-06T07:50:25;26.50;84.50
27534;DHT22;14973;51.460;7.008;2022-07-06T07:52:52;26.90;82.80
27534;DHT22;14973;51.460;7.008;2022-07-06T07:55:17;26.90;82.00
27534;DHT22;14973;51.460;7.008;2022-07-06T07:57:43;27.50;81.50
27534;DHT22;14973;51.460;7.008;2022-07-06T08:00:08;28.60;78.50
27534;DHT22;14973;51.460;7.008;2022-07-06T08:02:34;28.80;77.90
27534;DHT22;14973;51.460;7.008;2022-07-06T08:05:00;28.50;77.40
27534;DHT22;14973;51.460;7.008;2022-07-06T08:07:25;28.60;76.80
27534;DHT22;14973;51.460;7.008;2022-07-06T08:09:51;28.90;76.40
27534;DHT22;14973;51.460;7.008;2022-07-06T08:12:16;29.50;75.70
27534;DHT22;14973;51.460;7.008;2022-07-06T08:14:42;30.40;74.20
27534;DHT22;14973;51.460;7.008;2022-07-06T08:17:07;31.20;71.00
27534;DHT22;14973;51.460;7.008;2022-07-06T08:19:33;31.50;71.20
27534;DHT22;14973;51.460;7.008;2022-07-06T08:21:58;31.60;70.20
27534;DHT22;14973;51.460;7.008;2022-07-06T08:24:24;31.10;70.40
27534;DHT22;14973;51.460;7.008;2022-07-06T08:26:49;30.10;71.80
27534;DHT22;14973;51.460;7.008;2022-07-06T08:29:15;29.90;72.10
27534;DHT22;14973;51.460;7.008;2022-07-06T08:31:40;29.50;72.00
27534;DHT22;14973;51.460;7.008;2022-07-06T08:34:06;28.40;73.20
27534;DHT22;14973;51.460;7.008;2022-07-06T08:36:32;27.30;75.70
27534;DHT22;14973;51.460;7.008;2022-07-06T08:38:57;26.80;76.50
27534;DHT22;14973;51.460;7.008;2022-07-06T08:41:24;27.10;76.60
27534;DHT22;14973;51.460;7.008;2022-07-06T08:43:50;28.10;74.10
27534;DHT22;14973;51.460;7.008;2022-07-06T08:46:16;29.70;71.60
27534;DHT22;14973;51.460;7.008;2022-07-06T08:48:41;30.40;69.40
27534;DHT22;14973;51.460;7.008;2022-07-06T08:51:07;30.40;69.50
27534;DHT22;14973;51.460;7.008;2022-07-06T08:53:33;29.70;70.40
27534;DHT22;14973;51.460;7.008;2022-07-06T08:56:00;29.00;72.00
27534;DHT22;14973;51.460;7.008;2022-07-06T08:58:26;28.10;73.80
27534;DHT22;14973;51.460;7.008;2022-07-06T09:00:54;26.90;75.80
27534;DHT22;14973;51.460;7.008;2022-07-06T09:03:19;26.20;78.10
27534;DHT22;14973;51.460;7.008;2022-07-06T09:05:45;25.60;79.10
27534;DHT22;14973;51.460;7.008;2022-07-06T09:08:11;24.60;80.80
27534;DHT22;14973;51.460;7.008;2022-07-06T09:10:37;23.90;82.20
27534;DHT22;14973;51.460;7.008;2022-07-06T09:13:07;23.40;82.50
27534;DHT22;14973;51.460;7.008;2022-07-06T09:15:34;23.20;82.70
27534;DHT22;14973;51.460;7.008;2022-07-06T09:17:59;23.60;82.70
27534;DHT22;14973;51.460;7.008;2022-07-06T09:20:25;24.00;83.00
27534;DHT22;14973;51.460;7.008;2022-07-06T09:22:53;24.10;82.70
27534;DHT22;14973;51.460;7.008;2022-07-06T09:25:19;24.00;82.60
27534;DHT22;14973;51.460;7.008;2022-07-06T09:27:45;24.00;82.80
27534;DHT22;14973;51.460;7.008;2022-07-06T09:30:13;24.20;81.60
27534;DHT22;14973;51.460;7.008;2022-07-06T09:32:46;24.10;81.40
27534;DHT22;14973;51.460;7.008;2022-07-06T09:35:22;24.10;81.70
27534;DHT22;14973;51.460;7.008;2022-07-06T09:37:59;24.00;82.30
27534;DHT22;14973;51.460;7.008;2022-07-06T09:40:24;25.70;79.40
27534;DHT22;14973;51.460;7.008;2022-07-06T09:42:50;28.40;75.60
27534;DHT22;14973;51.460;7.008;2022-07-06T09:45:19;30.40;69.90
27534;DHT22;14973;51.460;7.008;2022-07-06T09:47:48;32.50;66.90
27534;DHT22;14973;51.460;7.008;2022-07-06T09:50:15;34.10;63.60
27534;DHT22;14973;51.460;7.008;2022-07-06T09:52:41;33.20;63.20
27534;DHT22;14973;51.460;7.008;2022-07-06T09:55:14;32.60;64.40
27534;DHT22;14973;51.460;7.008;2022-07-06T09:57:51;30.80;65.70
27534;DHT22;14973;51.460;7.008;2022-07-06T10:00:17;30.30;66.70
27534;DHT22;14973;51.460;7.008;2022-07-06T10:02:44;29.50;67.00
27534;DHT22;14973;51.460;7.008;2022-07-06T10:05:10;28.40;69.00
27534;DHT22;14973;51.460;7.008;2022-07-06T10:07:36;27.80;70.20
27534;DHT22;14973;51.460;7.008;2022-07-06T10:10:02;28.00;69.90
27534;DHT22;14973;51.460;7.008;2022-07-06T10:12:28;28.30;70.20
27534;DHT22;14973;51.460;7.008;2022-07-06T10:14:53;28.30;69.90
27534;DHT22;14973;51.460;7.008;2022-07-06T10:17:19;28.40;70.40
27534;DHT22;14973;51.460;7.008;2022-07-06T10:19:46;28.20;69.90
27534;DHT22;14973;51.460;7.008;2022-07-06T10:22:12;28.50;69.90
27534;DHT22;14973;51.460;7.008;2022-07-06T10:24:38;28.20;69.60
27534;DHT22;14973;51.460;7.008;2022-07-06T10:27:09;27.70;70.00
27534;DHT22;14973;51.460;7.008;2022-07-06T10:29:35;27.40;71.90
27534;DHT22;14973;51.460;7.008;2022-07-06T10:32:01;27.50;71.60
27534;DHT22;14973;51.460;7.008;2022-07-06T10:34:27;26.40;73.20
27534;DHT22;14973;51.460;7.008;2022-07-06T10:36:52;26.40;74.60
27534;DHT22;14973;51.460;7.008;2022-07-06T10:45:00;27.10;73.10
27534;DHT22;14973;51.460;7.008;2022-07-06T10:47:27;27.50;72.40
27534;DHT22;14973;51.460;7.008;2022-07-06T10:49:52;27.30;71.20
27534;DHT22;14973;51.460;7.008;2022-07-06T10:52:29;26.80;71.20
27534;DHT22;14973;51.460;7.008;2022-07-06T10:55:25;26.50;72.90
27534;DHT22;14973;51.460;7.008;2022-07-06T10:57:53;26.00;74.80
27534;DHT22;14973;51.460;7.008;2022-07-06T11:00:18;25.50;77.10
27534;DHT22;14973;51.460;7.008;2022-07-06T11:02:44;25.50;77.30
27534;DHT22;14973;51.460;7.008;2022-07-06T11:05:39;25.30;77.20
27534;DHT22;14973;51.460;7.008;2022-07-06T11:08:00;25.10;78.10
27534;DHT22;14973;51.460;7.008;2022-07-06T11:10:26;24.80;78.50
27534;DHT22;14973;51.460;7.008;2022-07-06T11:13:01;24.60;79.00
27534;DHT22;14973;51.460;7.008;2022-07-06T11:15:46;24.40;79.10
27534;DHT22;14973;51.460;7.008;2022-07-06T11:18:11;24.20;79.20
27534;DHT22;14973;51.460;7.008;2022-07-06T11:20:40;23.70;79.50
27534;DHT22;14973;51.460;7.008;2022-07-06T11:23:06;23.10;80.80
27534;DHT22;14973;51.460;7.008;2022-07-06T11:25:31;22.90;82.30
27534;DHT22;14973;51.460;7.008;2022-07-06T11:27:57;22.70;81.80
27534;DHT22;14973;51.460;7.008;2022-07-06T11:30:22;22.70;81.50
27534;DHT22;14973;51.460;7.008;2022-07-06T11:32:48;22.80;81.90
27534;DHT22;14973;51.460;7.008;2022-07-06T11:35:20;22.90;82.20
27534;DHT22;14973;51.460;7.008;2022-07-06T11:37:46;23.60;80.60
27534;DHT22;14973;51.460;7.008;2022-07-06T11:40:13;23.90;79.60
27534;DHT22;14973;51.460;7.008;2022-07-06T11:42:39;24.20;79.10
27534;DHT22;14973;51.460;7.008;2022-07-06T11:45:05;24.50;79.10
27534;DHT22;14973;51.460;7.008;2022-07-06T11:47:31;24.30;78.70
27534;DHT22;14973;51.460;7.008;2022-07-06T11:49:57;24.20;80.00
27534;DHT22;14973;51.460;7.008;2022-07-06T11:52:22;24.40;79.50
27534;DHT22;14973;51.460;7.008;2022-07-06T11:54:48;24.80;79.70
27534;DHT22;14973;51.460;7.008;2022-07-06T11:57:14;25.20;77.50
27534;DHT22;14973;51.460;7.008;2022-07-06T11:59:41;25.70;75.90
27534;DHT22;14973;51.460;7.008;2022-07-06T12:04:33;25.50;75.30
27534;DHT22;14973;51.460;7.008;2022-07-06T12:06:59;25.60;75.10
27534;DHT22;14973;51.460;7.008;2022-07-06T12:09:26;25.60;75.40
27534;DHT22;14973;51.460;7.008;2022-07-06T12:11:54;25.30;75.40
27534;DHT22;14973;51.460;7.008;2022-07-06T12:14:20;25.30;76.30
27534;DHT22;14973;51.460;7.008;2022-07-06T12:16:46;25.60;75.80
27534;DHT22;14973;51.460;7.008;2022-07-06T12:19:13;26.00;75.20
27534;DHT22;14973;51.460;7.008;2022-07-06T12:21:46;26.00;74.20
27534;DHT22;14973;51.460;7.008;2022-07-06T12:26:43;26.20;73.80
27534;DHT22;14973;51.460;7.008;2022-07-06T12:29:09;26.30;73.20
27534;DHT22;14973;51.460;7.008;2022-07-06T12:31:48;26.00;74.70
27534;DHT22;14973;51.460;7.008;2022-07-06T12:34:15;25.70;75.20
27534;DHT22;14973;51.460;7.008;2022-07-06T12:36:51;25.60;76.20
27534;DHT22;14973;51.460;7.008;2022-07-06T12:39:18;25.60;75.80
27534;DHT22;14973;51.460;7.008;2022-07-06T12:41:44;26.00;75.20
27534;DHT22;14973;51.460;7.008;2022-07-06T12:44:11;26.10;74.90
27534;DHT22;14973;51.460;7.008;2022-07-06T12:46:37;26.00;75.70
27534;DHT22;14973;51.460;7.008;2022-07-06T12:49:06;26.00;75.80
27534;DHT22;14973;51.460;7.008;2022-07-06T12:54:22;25.80;75.70
27534;DHT22;14973;51.460;7.008;2022-07-06T12:56:57;26.20;75.70
27534;DHT22;14973;51.460;7.008;2022-07-06T12:59:23;26.40;75.10
27534;DHT22;14973;51.460;7.008;2022-07-06T13:01:48;26.20;74.90
27534;DHT22;14973;51.460;7.008;2022-07-06T13:04:16;26.30;75.50
27534;DHT22;14973;51.460;7.008;2022-07-06T13:06:41;26.40;74.50
27534;DHT22;14973;51.460;7.008;2022-07-06T13:09:07;26.50;74.10
27534;DHT22;14973;51.460;7.008;2022-07-06T13:11:32;26.00;75.00
27534;DHT22;14973;51.460;7.008;2022-07-06T13:13:59;25.60;75.30
27534;DHT22;14973;51.460;7.008;2022-07-06T13:16:24;25.30;76.50
27534;DHT22;14973;51.460;7.008;2022-07-06T13:18:55;25.10;77.70
27534;DHT22;14973;51.460;7.008;2022-07-06T13:21:21;25.10;77.40
27534;DHT22;14973;51.460;7.008;2022-07-06T13:23:46;25.40;76.70
27534;DHT22;14973;51.460;7.008;2022-07-06T13:26:12;25.30;76.40
27534;DHT22;14973;51.460;7.008;2022-07-06T13:28:38;25.30;77.00
27534;DHT22;14973;51.460;7.008;2022-07-06T13:31:04;25.20;77.60
27534;DHT22;14973;51.460;7.008;2022-07-06T13:33:29;25.20;77.00
27534;DHT22;14973;51.460;7.008;2022-07-06T13:35:55;25.50;77.30
27534;DHT22;14973;51.460;7.008;2022-07-06T13:38:21;25.90;76.00
27534;DHT22;14973;51.460;7.008;2022-07-06T13:40:46;25.50;76.00
27534;DHT22;14973;51.460;7.008;2022-07-06T13:43:12;25.30;76.20
27534;DHT22;14973;51.460;7.008;2022-07-06T13:45:37;25.20;76.60
27534;DHT22;14973;51.460;7.008;2022-07-06T13:48:03;24.80;77.40
27534;DHT22;14973;51.460;7.008;2022-07-06T13:50:28;24.70;78.10
27534;DHT22;14973;51.460;7.008;2022-07-06T13:53:00;24.60;78.30
27534;DHT22;14973;51.460;7.008;2022-07-06T13:55:25;24.80;78.40
27534;DHT22;14973;51.460;7.008;2022-07-06T13:57:51;24.90;76.90
27534;DHT22;14973;51.460;7.008;2022-07-06T14:00:17;24.70;77.50
27534;DHT22;14973;51.460;7.008;2022-07-06T14:02:43;24.70;77.60
27534;DHT22;14973;51.460;7.008;2022-07-06T14:05:09;24.30;78.10
27534;DHT22;14973;51.460;7.008;2022-07-06T14:07:35;24.40;78.20
27534;DHT22;14973;51.460;7.008;2022-07-06T14:10:00;24.40;78.00
27534;DHT22;14973;51.460;7.008;2022-07-06T14:12:26;24.20;78.70
27534;DHT22;14973;51.460;7.008;2022-07-06T14:14:52;24.40;78.60
27534;DHT22;14973;51.460;7.008;2022-07-06T14:17:17;24.50;78.40
27534;DHT22;14973;51.460;7.008;2022-07-06T14:19:43;24.80;78.20
27534;DHT22;14973;51.460;7.008;2022-07-06T14:22:08;24.90;76.90
27534;DHT22;14973;51.460;7.008;2022-07-06T14:24:34;25.10;76.80
27534;DHT22;14973;51.460;7.008;2022-07-06T14:27:00;25.30;76.40
27534;DHT22;14973;51.460;7.008;2022-07-06T14:29:26;25.30;76.30
27534;DHT22;14973;51.460;7.008;2022-07-06T14:31:51;25.40;75.80
27534;DHT22;14973;51.460;7.008;2022-07-06T14:34:17;25.30;76.40
27534;DHT22;14973;51.460;7.008;2022-07-06T14:36:42;25.20;76.10
27534;DHT22;14973;51.460;7.008;2022-07-06T14:39:08;25.10;76.00
27534;DHT22;14973;51.460;7.008;2022-07-06T14:41:33;25.00;76.60
27534;DHT22;14973;51.460;7.008;2022-07-06T14:44:00;25.10;77.30
27534;DHT22;14973;51.460;7.008;2022-07-06T14:46:26;25.10;77.10
27534;DHT22;14973;51.460;7.008;2022-07-06T14:48:52;25.30;77.20
27534;DHT22;14973;51.460;7.008;2022-07-06T14:51:17;25.40;76.50
27534;DHT22;14973;51.460;7.008;2022-07-06T14:53:43;25.60;76.30
27534;DHT22;14973;51.460;7.008;2022-07-06T14:56:08;25.80;75.60
27534;DHT22;14973;51.460;7.008;2022-07-06T14:58:34;25.60;76.40
27534;DHT22;14973;51.460;7.008;2022-07-06T15:00:59;25.70;75.50
27534;DHT22;14973;51.460;7.008;2022-07-06T15:03:26;25.40;75.70
27534;DHT22;14973;51.460;7.008;2022-07-06T15:05:52;25.50;76.00
27534;DHT22;14973;51.460;7.008;2022-07-06T15:08:18;25.50;76.20
27534;DHT22;14973;51.460;7.008;2022-07-06T15:10:43;25.40;75.80
27534;DHT22;14973;51.460;7.008;2022-07-06T15:13:09;25.20;76.60
27534;DHT22;14973;51.460;7.008;2022-07-06T15:15:35;25.30;76.10
27534;DHT22;14973;51.460;7.008;2022-07-06T15:18:01;25.50;75.80
27534;DHT22;14973;51.460;7.008;2022-07-06T15:20:27;25.20;76.20
27534;DHT22;14973;51.460;7.008;2022-07-06T15:22:52;25.00;76.80
27534;DHT22;14973;51.460;7.008;2022-07-06T15:25:18;25.10;76.70
27534;DHT22;14973;51.460;7.008;2022-07-06T15:27:44;24.90;77.10
27534;DHT22;14973;51.460;7.008;2022-07-06T15:30:10;25.20;76.70
27534;DHT22;14973;51.460;7.008;2022-07-06T15:32:36;25.20;76.80
27534;DHT22;14973;51.460;7.008;2022-07-06T15:35:01;25.30;77.00
27534;DHT22;14973;51.460;7.008;2022-07-06T15:37:33;25.30;76.70
27534;DHT22;14973;51.460;7.008;2022-07-06T15:39:59;25.10;76.70